createdAt,value
2022-12-26T00:01:50.254Z,4.07
2022-12-26T00:05:51.438Z,4.70
2022-12-26T00:09:52.625Z,4.83
2022-12-26T00:14:03.343Z,4.67
2022-12-26T00:18:04.563Z,4.07
2022-12-26T00:22:05.757Z,3.97
2022-12-26T00:26:09.880Z,3.90
2022-12-26T00:30:11.348Z,4.10
2022-12-26T00:34:12.517Z,4.20
2022-12-26T00:38:13.771Z,4.40
2022-12-26T00:42:14.967Z,3.73
2022-12-26T00:46:17.369Z,3.90
2022-12-26T00:50:18.559Z,4.47
2022-12-26T00:54:20.198Z,4.13
2022-12-26T00:58:22.678Z,4.43
2022-12-26T01:02:40.261Z,4.73
2022-12-26T01:06:41.591Z,4.40
2022-12-26T01:10:43.982Z,4.47
2022-12-26T01:14:45.342Z,4.40
2022-12-26T01:18:46.521Z,4.30
2022-12-26T01:22:47.705Z,3.83
2022-12-26T01:26:48.887Z,4.03
2022-12-26T01:30:50.068Z,3.80
2022-12-26T01:34:53.156Z,3.87
2022-12-26T01:38:54.329Z,3.80
2022-12-26T01:42:55.496Z,4.40
2022-12-26T01:46:56.674Z,3.90
2022-12-26T01:51:01.434Z,3.73
2022-12-26T01:55:05.090Z,4.20
2022-12-26T01:59:13.026Z,3.60
2022-12-26T02:03:32.500Z,3.87
2022-12-26T02:07:36.464Z,3.70
2022-12-26T02:11:41.374Z,4.40
2022-12-26T02:15:42.539Z,4.07
2022-12-26T02:19:59.408Z,3.03
2022-12-26T02:24:10.761Z,3.57
2022-12-26T02:28:38.822Z,4.30
2022-12-26T02:32:52.987Z,4.33
2022-12-26T02:37:16.377Z,3.50
2022-12-26T02:41:21.360Z,3.80
2022-12-26T02:45:47.810Z,4.03
2022-12-26T02:50:19.913Z,3.60
2022-12-26T02:54:43.547Z,3.53
2022-12-26T02:59:18.595Z,4.17
2022-12-26T03:03:42.007Z,3.80
2022-12-26T03:08:03.575Z,3.70
2022-12-26T03:12:32.192Z,4.03
2022-12-26T03:20:42.307Z,3.77
2022-12-26T03:24:45.499Z,3.60
2022-12-26T03:28:47.202Z,4.23
2022-12-26T03:32:48.355Z,3.80
2022-12-26T03:37:16.473Z,4.43
2022-12-26T03:41:45.915Z,4.13
2022-12-26T03:46:32.734Z,3.87
2022-12-26T03:51:05.039Z,3.83
2022-12-26T03:55:37.728Z,3.80
2022-12-26T04:00:13.356Z,3.83
2022-12-26T04:04:34.529Z,3.77
2022-12-26T04:09:00.722Z,3.87
2022-12-26T04:13:23.770Z,4.40
2022-12-26T04:18:02.485Z,4.17
2022-12-26T04:22:37.527Z,4.27
2022-12-26T04:27:00.904Z,4.53
2022-12-26T04:31:30.042Z,3.57
2022-12-26T04:35:53.670Z,4.07
2022-12-26T04:40:16.749Z,4.30
2022-12-26T04:44:21.242Z,3.93
2022-12-26T04:48:40.935Z,3.40
2022-12-26T04:52:54.439Z,3.40
2022-12-26T04:56:55.593Z,4.03
2022-12-26T05:00:59.167Z,3.60
2022-12-26T05:05:18.958Z,4.10
2022-12-26T05:09:35.275Z,4.80
2022-12-26T05:13:36.539Z,3.37
2022-12-26T05:17:56.887Z,4.37
2022-12-26T05:22:18.037Z,3.90
2022-12-26T05:26:41.265Z,4.30
2022-12-26T05:30:43.001Z,3.70
2022-12-26T05:34:44.505Z,4.30
2022-12-26T05:38:46.329Z,4.17
2022-12-26T05:42:47.996Z,4.17
2022-12-26T05:46:49.415Z,3.43
2022-12-26T05:50:50.958Z,3.67
2022-12-26T05:54:52.435Z,3.70
2022-12-26T05:58:55.478Z,3.23
2022-12-26T06:02:59.372Z,4.10
2022-12-26T06:07:00.786Z,4.13
2022-12-26T06:11:04.230Z,3.70
2022-12-26T06:15:06.664Z,3.70
2022-12-26T06:19:08.167Z,3.80
2022-12-26T06:23:09.327Z,3.67
2022-12-26T06:27:10.520Z,3.83
2022-12-26T06:31:15.342Z,2.90
2022-12-26T06:35:16.491Z,3.67
2022-12-26T06:39:17.862Z,3.97
2022-12-26T06:43:19.032Z,3.10
2022-12-26T06:47:20.414Z,3.63
2022-12-26T06:51:24.692Z,4.20
2022-12-26T06:55:25.866Z,3.90
2022-12-26T06:59:27.518Z,4.00
2022-12-26T07:03:29.004Z,4.43
2022-12-26T07:07:30.169Z,3.73
2022-12-26T07:11:34.284Z,3.60
2022-12-26T07:15:35.422Z,3.83
2022-12-26T07:19:36.619Z,3.80
2022-12-26T07:23:38.083Z,3.87
2022-12-26T07:27:39.283Z,4.40
2022-12-26T07:31:41.342Z,3.80
2022-12-26T07:35:43.368Z,4.37
2022-12-26T07:39:44.535Z,4.17
2022-12-26T07:43:45.727Z,3.90
2022-12-26T07:47:46.908Z,4.20
2022-12-26T07:51:49.295Z,3.93
2022-12-26T07:55:50.420Z,3.87
2022-12-26T07:59:54.970Z,4.13
2022-12-26T08:03:54.577Z,4.53
2022-12-26T08:07:55.682Z,4.43
2022-12-26T08:11:57.339Z,3.37
2022-12-26T08:15:58.807Z,3.93
2022-12-26T08:19:59.955Z,4.40
2022-12-26T08:24:01.216Z,4.30
2022-12-26T08:28:02.259Z,4.13
2022-12-26T08:32:03.617Z,4.10
2022-12-26T08:36:07.014Z,3.47
2022-12-26T08:40:09.292Z,3.50
2022-12-26T08:44:28.489Z,2.97
2022-12-26T08:48:15.302Z,3.87
2022-12-26T08:52:16.437Z,3.33
2022-12-26T08:56:20.303Z,3.37
2022-12-26T09:00:23.351Z,3.63
2022-12-26T09:04:24.528Z,3.33
2022-12-26T09:08:25.884Z,4.40
2022-12-26T09:12:27.053Z,3.40
2022-12-26T09:16:37.261Z,4.40
2022-12-26T09:20:34.270Z,3.93
2022-12-26T09:24:35.413Z,3.57
2022-12-26T09:28:37.097Z,3.57
2022-12-26T09:32:38.343Z,3.63
2022-12-26T09:36:39.618Z,3.13
2022-12-26T09:40:47.324Z,3.50
2022-12-26T09:45:01.637Z,2.90
2022-12-26T09:49:15.199Z,3.53
2022-12-26T09:53:35.280Z,4.67
2022-12-26T09:57:40.241Z,2.97
2022-12-26T10:01:42.779Z,2.80
2022-12-26T10:05:47.739Z,2.83
2022-12-26T10:10:09.496Z,2.70
2022-12-26T10:14:23.692Z,2.33
2022-12-26T10:18:47.327Z,2.30
2022-12-26T10:22:58.031Z,2.40
2022-12-26T10:27:02.677Z,3.33
2022-12-26T10:31:08.351Z,2.70
2022-12-26T10:35:37.759Z,3.13
2022-12-26T10:39:48.792Z,2.20
2022-12-26T10:43:49.942Z,2.73
2022-12-26T10:47:52.018Z,3.20
2022-12-26T10:51:56.106Z,2.50
2022-12-26T10:56:00.092Z,7.53
2022-12-26T11:00:07.699Z,3.50
2022-12-26T11:04:44.437Z,2.90
2022-12-26T11:08:33.332Z,3.23
2022-12-26T11:12:50.227Z,2.87
2022-12-26T11:16:51.926Z,3.17
2022-12-26T11:20:53.395Z,3.57
2022-12-26T11:25:16.755Z,2.80
2022-12-26T11:29:20.381Z,2.77
2022-12-26T11:33:34.530Z,3.53
2022-12-26T11:37:41.999Z,2.97
2022-12-26T11:41:45.079Z,2.73
2022-12-26T11:45:49.326Z,3.27
2022-12-26T11:50:02.865Z,3.20
2022-12-26T11:54:20.002Z,2.60
2022-12-26T11:58:23.062Z,2.80
2022-12-26T12:02:30.520Z,2.83
2022-12-26T12:06:46.234Z,3.27
2022-12-26T12:11:08.061Z,2.43
2022-12-26T12:15:13.097Z,3.33
2022-12-26T12:19:39.214Z,3.60
2022-12-26T12:23:44.183Z,2.63
2022-12-26T12:28:01.595Z,2.53
2022-12-26T12:32:15.348Z,2.80
2022-12-26T12:36:22.839Z,2.20
2022-12-26T12:40:40.029Z,1.83
2022-12-26T12:44:45.045Z,2.00
2022-12-26T12:49:13.012Z,2.00
2022-12-26T12:53:21.066Z,1.97
2022-12-26T12:57:38.336Z,1.80
2022-12-26T13:01:43.428Z,2.13
2022-12-26T13:06:11.624Z,2.47
2022-12-26T13:10:22.820Z,2.03
2022-12-26T13:14:36.631Z,2.03
2022-12-26T13:18:41.623Z,2.10
2022-12-26T13:23:07.719Z,2.50
2022-12-26T13:27:24.592Z,2.57
2022-12-26T13:31:34.796Z,2.37
2022-12-26T13:35:57.264Z,2.10
2022-12-26T13:40:02.498Z,2.33
2022-12-26T13:44:06.893Z,1.97
2022-12-26T13:48:18.290Z,1.70
2022-12-26T13:52:34.989Z,2.07
2022-12-26T13:56:46.036Z,1.43
2022-12-26T14:00:48.189Z,2.63
2022-12-26T14:05:02.277Z,2.17
2022-12-26T14:09:16.620Z,3.17
2022-12-26T14:13:45.746Z,2.87
2022-12-26T14:18:10.193Z,2.20
2022-12-26T14:22:27.400Z,1.90
2022-12-26T14:26:32.375Z,2.10
2022-12-26T14:30:56.805Z,1.90
2022-12-26T14:35:26.454Z,2.13
2022-12-26T14:39:37.249Z,1.63
2022-12-26T14:43:39.981Z,1.93
2022-12-26T14:47:44.117Z,1.50
2022-12-26T14:51:45.330Z,1.70
2022-12-26T14:55:50.435Z,2.20
2022-12-26T15:00:04.282Z,2.10
2022-12-26T15:04:18.252Z,1.93
2022-12-26T15:08:26.298Z,2.03
2022-12-26T15:12:39.793Z,2.00
2022-12-26T15:17:08.737Z,1.83
2022-12-26T15:21:39.981Z,1.60
2022-12-26T15:25:48.143Z,2.00
2022-12-26T15:30:14.844Z,2.30
2022-12-26T15:34:25.676Z,1.60
2022-12-26T15:38:45.748Z,1.80
2022-12-26T15:43:08.870Z,3.90
2022-12-26T15:47:19.864Z,1.30
2022-12-26T15:51:30.918Z,1.00
2022-12-26T15:55:58.721Z,1.90
2022-12-26T16:00:06.775Z,2.27
2022-12-26T16:04:32.641Z,1.90
2022-12-26T16:08:56.043Z,1.13
2022-12-26T16:13:07.251Z,1.43
2022-12-26T16:17:11.345Z,2.53
2022-12-26T16:21:31.580Z,1.20
2022-12-26T16:25:37.699Z,1.37
2022-12-26T16:29:39.861Z,1.73
2022-12-26T16:33:43.131Z,6.93
2022-12-26T16:37:44.512Z,4.57
2022-12-26T16:42:01.549Z,3.80
2022-12-26T16:46:05.392Z,0.80
2022-12-26T16:50:07.133Z,1.60
2022-12-26T16:54:23.472Z,0.97
2022-12-26T16:58:28.768Z,1.30
2022-12-26T17:02:34.941Z,2.50
2022-12-26T17:06:42.974Z,1.90
2022-12-26T17:10:49.675Z,2.13
2022-12-26T17:14:52.757Z,1.47
2022-12-26T17:19:13.351Z,1.30
2022-12-26T17:23:39.147Z,1.03
2022-12-26T17:27:40.428Z,1.60
2022-12-26T17:31:43.971Z,2.10
2022-12-26T17:40:07.486Z,0.83
2022-12-26T17:44:32.532Z,1.07
2022-12-26T17:48:34.297Z,1.70
2022-12-26T17:52:36.671Z,1.10
2022-12-26T17:56:37.852Z,0.73
2022-12-26T18:00:40.259Z,1.17
2022-12-26T18:04:41.823Z,1.40
2022-12-26T18:08:43.012Z,1.80
2022-12-26T18:12:44.387Z,1.50
2022-12-26T18:16:47.186Z,1.07
2022-12-26T18:20:49.480Z,1.53
2022-12-26T18:24:50.651Z,1.30
2022-12-26T18:28:51.844Z,2.00
2022-12-26T18:32:53.529Z,2.07
2022-12-26T18:36:54.713Z,3.40
2022-12-26T18:40:57.791Z,2.10
2022-12-26T18:44:58.996Z,2.20
2022-12-26T18:49:00.179Z,1.90
2022-12-26T18:53:01.361Z,1.40
2022-12-26T18:57:04.963Z,1.93
2022-12-26T19:01:06.384Z,1.10
2022-12-26T19:05:11.830Z,1.43
2022-12-26T19:09:14.220Z,1.50
2022-12-26T19:13:15.389Z,4.80
2022-12-26T19:17:17.177Z,1.27
2022-12-26T19:21:18.347Z,2.13
2022-12-26T19:25:21.233Z,1.50
2022-12-26T19:29:22.413Z,1.63
2022-12-26T19:33:23.601Z,1.13
2022-12-26T19:37:24.777Z,1.70
2022-12-26T19:41:25.981Z,1.20
2022-12-26T19:45:27.195Z,1.00
2022-12-26T19:49:33.556Z,1.30
2022-12-26T19:53:31.849Z,1.73
2022-12-26T19:57:33.315Z,1.40
2022-12-26T20:01:34.724Z,1.00
2022-12-26T20:05:37.517Z,1.47
2022-12-26T20:09:38.710Z,1.60
2022-12-26T20:13:41.126Z,1.63
2022-12-26T20:17:42.397Z,1.20
2022-12-26T20:21:45.627Z,1.80
2022-12-26T20:25:46.795Z,1.20
2022-12-26T20:29:47.912Z,1.50
2022-12-26T20:33:50.589Z,1.20
2022-12-26T20:37:52.281Z,1.50
2022-12-26T20:41:53.711Z,1.30
2022-12-26T20:45:56.824Z,1.50
2022-12-26T20:49:57.987Z,1.83
2022-12-26T20:54:00.522Z,2.03
2022-12-26T20:58:03.120Z,2.23
2022-12-26T21:02:05.263Z,3.80
2022-12-26T21:06:12.853Z,2.47
2022-12-26T21:10:14.031Z,3.90
2022-12-26T21:14:18.426Z,2.10
2022-12-26T21:18:19.618Z,2.10
2022-12-26T21:22:20.799Z,1.53
2022-12-26T21:26:22.473Z,1.30
2022-12-26T21:30:23.650Z,0.87
2022-12-26T21:34:27.459Z,1.20
2022-12-26T21:38:29.986Z,1.10
2022-12-26T21:42:31.188Z,1.43
2022-12-26T21:46:32.404Z,0.93
2022-12-26T21:50:34.001Z,1.53
2022-12-26T21:54:53.708Z,1.30
2022-12-26T21:59:13.528Z,1.23
2022-12-26T22:03:33.200Z,1.80
2022-12-26T22:07:34.892Z,1.17
2022-12-26T22:11:54.978Z,1.00
2022-12-26T22:16:07.069Z,1.40
2022-12-26T22:20:08.591Z,1.57
2022-12-26T22:24:10.478Z,1.20
2022-12-26T22:28:11.628Z,1.00
2022-12-26T22:32:12.804Z,1.73
2022-12-26T22:36:13.971Z,1.33
2022-12-26T22:40:15.137Z,1.20
2022-12-26T22:44:16.276Z,1.30
2022-12-26T22:48:18.141Z,1.20
2022-12-26T22:52:19.700Z,1.63
2022-12-26T22:56:20.905Z,1.10
2022-12-26T23:00:22.067Z,1.10
2022-12-26T23:04:23.543Z,1.60
2022-12-26T23:08:26.644Z,1.17
2022-12-26T23:12:43.462Z,1.30
2022-12-26T23:16:57.117Z,1.73
2022-12-26T23:21:20.226Z,1.77
2022-12-26T23:25:21.373Z,1.67
2022-12-26T23:29:43.088Z,1.60
2022-12-26T23:33:44.363Z,2.17
2022-12-26T23:37:45.590Z,1.50
2022-12-26T23:41:46.968Z,1.93
2022-12-26T23:45:48.138Z,1.80
2022-12-26T23:49:49.283Z,1.77
2022-12-26T23:53:50.473Z,2.00
2022-12-26T23:57:51.628Z,2.73
